Time;durP1;ratioP1;P1;durP2;ratioP2;P2;SDS_P1;SDS_P2;PMS_P1;PMS_P2;Temp;Humidity;BMP_temperature;BMP_pressure;BME280_temperature;BME280_humidity;BME280_pressure;Samples;Min_cycle;Max_cycle;Signal;HPM_P1;HPM_P2
2023/12/19 06:51:41;;;;;;;40.27;29.20;;;-0.30;99.90;;;;;;5132682;27;20504;-86
2023/12/19 06:54:07;;;;;;;43.60;30.57;;;-0.30;99.90;;;;;;5130598;28;20183;-86
2023/12/19 06:56:32;;;;;;;39.33;27.40;;;-0.30;99.90;;;;;;5130880;28;20267;-86
2023/12/19 06:59:05;;;;;;;38.77;25.17;;;-0.20;99.90;;;;;;5131359;28;20180;-86
2023/12/19 07:01:31;;;;;;;33.90;24.47;;;-0.20;99.90;;;;;;5131673;27;20195;-86
2023/12/19 07:03:57;;;;;;;29.90;22.83;;;-0.20;99.90;;;;;;5131304;28;20182;-87
2023/12/19 07:06:23;;;;;;;27.03;20.23;;;-0.20;99.90;;;;;;5130258;27;20203;-86
2023/12/19 07:08:48;;;;;;;26.57;20.00;;;-0.20;99.90;;;;;;5131315;27;20205;-86
2023/12/19 07:11:14;;;;;;;22.97;19.03;;;-0.10;99.90;;;;;;5130355;28;20209;-85
2023/12/19 07:13:40;;;;;;;28.50;20.90;;;-0.10;99.90;;;;;;5131096;28;20176;-84
2023/12/19 07:16:06;;;;;;;21.67;17.70;;;-0.10;99.90;;;;;;5130406;28;20172;-83
2023/12/19 07:18:32;;;;;;;21.50;17.77;;;-0.10;99.90;;;;;;5130373;28;20179;-84
2023/12/19 07:20:58;;;;;;;22.00;18.03;;;0.00;99.90;;;;;;5130393;27;20200;-84
2023/12/19 07:23:25;;;;;;;22.60;16.50;;;0.00;99.90;;;;;;5130820;28;20262;-84
2023/12/19 07:25:50;;;;;;;19.17;16.30;;;0.00;99.90;;;;;;5129954;28;20176;-84
2023/12/19 07:28:16;;;;;;;18.33;15.17;;;0.00;99.90;;;;;;5130008;28;20198;-84
2023/12/19 07:30:42;;;;;;;21.87;15.17;;;0.10;99.90;;;;;;5129961;27;20187;-84
2023/12/19 07:33:08;;;;;;;17.37;14.73;;;0.20;99.90;;;;;;5129903;28;20270;-84
2023/12/19 07:35:34;;;;;;;18.40;15.10;;;0.20;99.90;;;;;;5130086;28;20270;-84
2023/12/19 07:37:59;;;;;;;18.63;14.97;;;0.20;99.90;;;;;;5129912;28;20231;-84
2023/12/19 07:40:26;;;;;;;17.53;14.63;;;0.30;99.90;;;;;;5129985;28;20252;-84
2023/12/19 07:42:51;;;;;;;19.33;15.27;;;0.40;99.90;;;;;;5130506;28;20180;-84
2023/12/19 07:45:18;;;;;;;20.53;16.63;;;0.50;99.90;;;;;;5129985;28;20176;-84
2023/12/19 07:47:44;;;;;;;28.83;22.20;;;0.60;99.90;;;;;;5129810;28;20200;-84
2023/12/19 07:50:10;;;;;;;30.73;22.83;;;0.60;99.90;;;;;;5129374;28;20191;-84
2023/12/19 07:52:37;;;;;;;23.20;20.10;;;0.70;99.90;;;;;;5130267;28;20259;-84
2023/12/19 07:55:09;;;;;;;20.23;17.67;;;0.70;99.90;;;;;;5130386;28;20176;-84
2023/12/19 07:57:37;;;;;;;17.47;15.17;;;0.70;99.90;;;;;;5129325;28;20205;-84
2023/12/19 08:00:03;;;;;;;17.13;14.13;;;0.70;99.90;;;;;;5129316;28;20200;-84
2023/12/19 08:02:32;;;;;;;16.87;13.73;;;0.70;99.90;;;;;;5118774;28;20180;-84
2023/12/19 08:04:58;;;;;;;15.67;13.83;;;0.80;99.90;;;;;;5116196;28;20257;-84
2023/12/19 08:07:24;;;;;;;15.60;13.23;;;0.90;99.90;;;;;;5116533;28;20196;-84
2023/12/19 08:09:50;;;;;;;17.20;14.20;;;1.00;99.90;;;;;;5115544;28;20206;-85
2023/12/19 08:12:15;;;;;;;18.57;14.13;;;1.10;99.90;;;;;;5115566;28;20181;-84
2023/12/19 08:14:41;;;;;;;16.23;13.77;;;1.30;99.90;;;;;;5116210;28;20183;-84
2023/12/19 08:17:06;;;;;;;15.37;13.00;;;1.50;99.90;;;;;;5116007;28;20211;-84
2023/12/19 08:19:32;;;;;;;14.60;12.83;;;1.60;99.90;;;;;;5116275;28;20183;-84
2023/12/19 08:21:58;;;;;;;16.20;13.23;;;1.70;99.90;;;;;;5115568;28;20218;-84
2023/12/19 08:24:58;;;;;;;16.80;13.23;;;1.90;99.90;;;;;;5115310;28;20180;-84
2023/12/19 08:27:55;;;;;;;18.47;12.80;;;2.00;99.90;;;;;;5086543;28;20268;-85
2023/12/19 08:30:24;;;;;;;18.23;13.37;;;2.10;99.90;;;;;;5088975;28;20244;-84
2023/12/19 08:32:52;;;;;;;15.47;13.30;;;2.30;99.90;;;;;;5115337;28;20238;-84
2023/12/19 08:35:18;;;;;;;15.47;13.00;;;2.40;99.90;;;;;;5115076;28;20180;-84
2023/12/19 08:37:44;;;;;;;18.40;14.03;;;2.40;99.90;;;;;;5114631;28;20196;-85
2023/12/19 08:40:10;;;;;;;14.87;13.23;;;2.50;99.90;;;;;;5114760;28;20204;-85
2023/12/19 08:42:36;;;;;;;15.30;13.20;;;2.50;99.90;;;;;;5114892;28;20674;-85
2023/12/19 08:45:02;;;;;;;16.37;13.73;;;2.50;99.90;;;;;;5115771;28;20201;-84
2023/12/19 08:47:28;;;;;;;17.73;14.07;;;2.60;99.90;;;;;;5114729;28;20198;-85
2023/12/19 08:49:56;;;;;;;15.23;12.80;;;2.70;99.90;;;;;;5114793;28;20259;-85
2023/12/19 08:52:22;;;;;;;17.47;14.23;;;2.80;99.90;;;;;;5114663;28;20176;-85
2023/12/19 08:54:48;;;;;;;16.00;13.23;;;2.80;99.90;;;;;;5115550;28;20201;-85
2023/12/19 08:57:14;;;;;;;18.20;15.30;;;3.00;99.90;;;;;;5114495;28;20209;-85
2023/12/19 08:59:40;;;;;;;20.70;16.03;;;3.10;99.90;;;;;;5114525;28;20246;-85
2023/12/19 09:02:07;;;;;;;21.07;15.77;;;3.20;99.90;;;;;;5114326;28;20180;-85
2023/12/19 09:04:32;;;;;;;39.57;25.03;;;3.30;99.90;;;;;;5114635;28;20194;-85
2023/12/19 09:06:59;;;;;;;17.77;14.17;;;3.40;99.90;;;;;;5115002;28;20199;-85
2023/12/19 09:09:25;;;;;;;18.37;13.53;;;3.30;99.90;;;;;;5115200;28;20187;-85
2023/12/19 09:11:50;;;;;;;21.53;19.23;;;3.20;99.90;;;;;;5114241;28;20549;-85
2023/12/19 09:14:17;;;;;;;18.93;16.37;;;3.10;99.90;;;;;;5113175;28;20176;-85
2023/12/19 09:16:43;;;;;;;14.87;13.03;;;3.10;99.90;;;;;;5115345;28;20207;-85
2023/12/19 09:19:09;;;;;;;14.90;13.30;;;3.10;99.90;;;;;;5114036;28;20172;-85
2023/12/19 09:21:34;;;;;;;15.27;11.83;;;3.20;99.90;;;;;;5114321;28;20203;-84
2023/12/19 09:24:00;;;;;;;14.70;12.67;;;3.30;99.90;;;;;;5114605;28;20649;-84
2023/12/19 09:26:27;;;;;;;14.97;13.00;;;3.40;99.90;;;;;;5114934;28;20196;-85
2023/12/19 09:28:55;;;;;;;15.47;13.57;;;3.40;99.90;;;;;;5113899;28;20172;-84
2023/12/19 09:31:21;;;;;;;15.40;12.87;;;3.30;99.90;;;;;;5113871;28;20176;-84
2023/12/19 09:33:47;;;;;;;15.33;13.33;;;3.20;99.90;;;;;;5114725;28;20176;-84
2023/12/19 09:36:24;;;;;;;14.33;12.77;;;3.10;99.90;;;;;;5113705;28;20188;-85
2023/12/19 09:38:50;;;;;;;14.80;13.13;;;3.10;99.90;;;;;;5114986;28;20162;-85
2023/12/19 09:41:17;;;;;;;15.10;12.87;;;3.10;99.90;;;;;;5113476;28;20699;-85
2023/12/19 09:43:43;;;;;;;16.87;12.97;;;3.10;99.90;;;;;;5113645;28;20181;-85
2023/12/19 09:46:11;;;;;;;14.77;12.53;;;3.10;99.90;;;;;;5113537;28;20237;-85
2023/12/19 09:48:37;;;;;;;14.27;12.47;;;3.20;99.90;;;;;;5114571;28;20183;-85
2023/12/19 09:51:05;;;;;;;15.73;13.03;;;3.20;99.90;;;;;;5113487;28;20189;-84
2023/12/19 09:53:33;;;;;;;18.10;13.60;;;3.30;99.90;;;;;;5113487;28;20244;-84
2023/12/19 09:56:00;;;;;;;15.53;13.20;;;3.40;99.90;;;;;;5113341;28;20206;-84
2023/12/19 09:58:29;;;;;;;15.90;13.13;;;3.30;99.90;;;;;;5113365;28;20286;-84
2023/12/19 10:00:59;;;;;;;16.50;13.43;;;3.30;99.90;;;;;;5114778;28;20536;-84
2023/12/19 10:03:27;;;;;;;19.20;13.33;;;3.30;99.90;;;;;;5113605;28;20675;-84
2023/12/19 10:05:53;;;;;;;16.57;13.73;;;3.30;99.90;;;;;;5113312;28;20273;-84
2023/12/19 10:08:19;;;;;;;15.13;12.93;;;3.30;99.90;;;;;;5113512;28;20687;-84
2023/12/19 10:10:49;;;;;;;16.33;13.10;;;3.30;99.90;;;;;;5113935;28;20180;-84
2023/12/19 10:13:35;;;;;;;16.23;13.97;;;3.40;99.90;;;;;;5113037;28;20691;-84
2023/12/19 10:16:06;;;;;;;16.80;14.60;;;3.40;99.90;;;;;;5113075;28;20206;-84
2023/12/19 10:18:32;;;;;;;16.83;13.77;;;3.40;99.90;;;;;;5112995;28;20183;-84
2023/12/19 10:21:13;;;;;;;16.00;13.47;;;3.50;99.90;;;;;;5113815;28;20299;-84
2023/12/19 10:23:43;;;;;;;16.20;14.17;;;3.50;99.90;;;;;;5113219;28;20209;-84
2023/12/19 10:26:10;;;;;;;16.37;13.67;;;3.50;99.90;;;;;;5113741;28;20636;-85
2023/12/19 10:28:37;;;;;;;16.80;13.70;;;3.40;99.90;;;;;;5113293;28;20172;-85
2023/12/19 10:31:06;;;;;;;18.80;14.83;;;3.40;99.90;;;;;;5112843;28;20172;-85
2023/12/19 10:33:48;;;;;;;18.03;14.97;;;3.40;99.90;;;;;;5112783;28;20195;-84
2023/12/19 10:36:31;;;;;;;19.77;17.33;;;3.40;99.90;;;;;;5113498;28;20179;-84
2023/12/19 10:38:58;;;;;;;22.07;19.57;;;3.40;99.90;;;;;;5112868;28;20168;-85
2023/12/19 10:41:25;;;;;;;21.30;18.97;;;3.40;99.90;;;;;;5113838;28;20196;-85
2023/12/19 10:43:55;;;;;;;18.53;16.10;;;3.40;99.90;;;;;;5112820;28;20172;-85
2023/12/19 10:46:24;;;;;;;16.17;14.47;;;3.50;99.90;;;;;;5114146;28;20176;-85
2023/12/19 10:49:02;;;;;;;19.20;13.93;;;3.60;99.90;;;;;;5112651;28;20201;-84
2023/12/19 10:51:32;;;;;;;15.90;13.67;;;3.60;99.90;;;;;;5112550;28;20191;-85
2023/12/19 10:54:08;;;;;;;23.43;21.13;;;3.60;99.90;;;;;;5113468;28;20180;-85
2023/12/19 10:57:02;;;;;;;23.27;20.83;;;3.50;99.90;;;;;;5113399;28;20202;-85
2023/12/19 10:59:54;;;;;;;17.83;15.93;;;3.50;99.90;;;;;;5112680;28;20165;-85
2023/12/19 11:02:39;;;;;;;22.33;17.27;;;3.50;99.90;;;;;;5112620;28;20164;-85
2023/12/19 11:05:27;;;;;;;33.47;25.53;;;3.40;99.90;;;;;;5112472;28;20179;-85
2023/12/19 11:07:57;;;;;;;34.53;27.80;;;3.30;99.90;;;;;;5112677;28;20260;-85
2023/12/19 11:10:26;;;;;;;51.10;39.90;;;3.30;99.90;;;;;;5112430;28;20179;-85
2023/12/19 11:12:53;;;;;;;68.23;44.53;;;3.30;99.90;;;;;;5112538;28;20180;-85
2023/12/19 11:15:20;;;;;;;23.80;18.83;;;3.30;99.90;;;;;;5112537;28;20176;-85
2023/12/19 11:18:02;;;;;;;19.93;17.67;;;3.30;99.90;;;;;;5112673;28;20196;-85
2023/12/19 11:20:37;;;;;;;18.33;15.60;;;3.30;99.90;;;;;;5112274;28;20570;-85
2023/12/19 11:23:30;;;;;;;17.73;14.80;;;3.30;99.90;;;;;;5112747;28;20186;-85
2023/12/19 11:26:04;;;;;;;20.83;14.10;;;3.30;99.90;;;;;;5112266;28;20172;-85
2023/12/19 11:28:37;;;;;;;20.27;16.80;;;3.30;99.90;;;;;;5113237;28;20161;-85
2023/12/19 11:31:03;;;;;;;20.83;15.03;;;3.30;99.90;;;;;;5112639;28;20191;-85
2023/12/19 11:33:29;;;;;;;17.73;14.53;;;3.30;99.90;;;;;;5112213;28;20177;-85
2023/12/19 11:35:55;;;;;;;18.53;14.37;;;3.30;99.90;;;;;;5112206;28;20325;-85
2023/12/19 11:38:25;;;;;;;17.37;14.60;;;3.40;99.90;;;;;;5116628;28;20215;-85
2023/12/19 11:40:53;;;;;;;16.77;14.43;;;3.30;99.90;;;;;;5115962;28;20192;-85
2023/12/19 11:43:28;;;;;;;19.83;15.13;;;3.30;99.90;;;;;;5115964;28;20186;-85
2023/12/19 11:45:54;;;;;;;19.07;14.67;;;3.30;99.90;;;;;;5116577;28;20215;-85
2023/12/19 11:48:39;;;;;;;16.87;14.23;;;3.30;99.90;;;;;;5117390;28;20259;-85
2023/12/19 11:51:10;;;;;;;20.03;15.30;;;3.30;99.90;;;;;;5116128;28;20195;-85
2023/12/19 11:53:36;;;;;;;20.80;15.83;;;3.30;99.90;;;;;;5115784;28;20188;-85
2023/12/19 11:56:09;;;;;;;18.83;15.37;;;3.30;99.90;;;;;;5115684;28;20180;-85
2023/12/19 11:58:47;;;;;;;22.20;15.43;;;3.30;99.90;;;;;;5115657;28;20176;-85
2023/12/19 12:01:14;;;;;;;20.93;15.73;;;3.40;99.90;;;;;;5116657;28;20200;-85
2023/12/19 12:03:40;;;;;;;20.23;15.83;;;3.40;99.90;;;;;;5115740;28;20263;-85
2023/12/19 12:06:08;;;;;;;21.07;16.40;;;3.40;99.90;;;;;;5115788;28;20207;-85
2023/12/19 12:08:34;;;;;;;20.40;16.23;;;3.40;99.90;;;;;;5115523;28;20202;-85
2023/12/19 12:11:05;;;;;;;20.03;16.57;;;3.30;99.90;;;;;;5116642;28;20183;-85
2023/12/19 12:13:32;;;;;;;20.20;16.03;;;3.30;99.90;;;;;;5115839;28;20179;-85
2023/12/19 12:15:59;;;;;;;18.93;15.93;;;3.40;99.90;;;;;;5115268;28;20183;-85
2023/12/19 12:18:27;;;;;;;22.97;16.60;;;3.40;99.90;;;;;;5115413;28;20208;-85
2023/12/19 12:21:09;;;;;;;20.63;16.63;;;3.50;99.90;;;;;;5115463;28;20204;-85
2023/12/19 12:23:35;;;;;;;21.57;17.73;;;3.50;99.90;;;;;;5115641;28;20173;-85
2023/12/19 12:26:01;;;;;;;24.00;19.27;;;3.50;99.90;;;;;;5115390;28;20175;-85
2023/12/19 12:28:28;;;;;;;24.17;18.87;;;3.50;99.90;;;;;;5115055;28;20275;-85
2023/12/19 12:31:03;;;;;;;22.23;17.43;;;3.50;99.90;;;;;;5114927;28;20169;-85
2023/12/19 12:33:31;;;;;;;21.33;17.43;;;3.40;99.90;;;;;;5116089;28;20190;-85
2023/12/19 12:35:57;;;;;;;20.53;16.70;;;3.40;99.90;;;;;;5114865;28;20203;-85
2023/12/19 12:38:23;;;;;;;22.27;17.53;;;3.40;99.90;;;;;;5114932;28;20208;-85
2023/12/19 12:40:59;;;;;;;22.90;18.17;;;3.40;99.90;;;;;;5114990;28;20196;-85
2023/12/19 12:43:39;;;;;;;22.43;17.47;;;3.40;99.90;;;;;;5114810;28;20168;-85
2023/12/19 12:46:12;;;;;;;22.17;17.50;;;3.30;99.90;;;;;;5115458;28;20160;-85
2023/12/19 12:49:03;;;;;;;27.90;22.60;;;3.30;99.90;;;;;;5114639;28;20183;-85
2023/12/19 12:51:30;;;;;;;26.73;21.80;;;3.20;99.90;;;;;;5114582;28;20238;-85
2023/12/19 12:54:00;;;;;;;26.67;21.03;;;3.20;99.90;;;;;;5114942;28;20211;-85
2023/12/19 12:56:38;;;;;;;23.23;19.30;;;3.20;99.90;;;;;;5114882;28;20196;-85
2023/12/19 12:59:12;;;;;;;26.50;20.13;;;3.10;99.90;;;;;;5114436;28;20176;-85
2023/12/19 13:01:43;;;;;;;23.03;18.87;;;3.20;99.90;;;;;;5115769;28;20180;-85
2023/12/19 13:04:09;;;;;;;23.97;18.00;;;3.10;99.90;;;;;;5115423;28;20259;-85
2023/12/19 13:06:37;;;;;;;25.13;18.97;;;3.20;99.90;;;;;;5114508;28;20231;-85
2023/12/19 13:09:04;;;;;;;25.70;18.30;;;3.20;99.90;;;;;;5114589;28;20180;-85
2023/12/19 13:11:30;;;;;;;21.50;16.77;;;3.20;99.90;;;;;;5114548;28;20184;-85
2023/12/19 13:13:55;;;;;;;19.57;16.00;;;3.20;99.90;;;;;;5114220;28;20224;-85
2023/12/19 13:16:21;;;;;;;18.80;15.30;;;3.30;99.90;;;;;;5114181;28;20210;-85
2023/12/19 13:18:47;;;;;;;20.43;15.40;;;3.30;99.90;;;;;;5114025;28;20180;-85
2023/12/19 13:21:14;;;;;;;17.97;15.03;;;3.30;99.90;;;;;;5114071;28;20195;-85
2023/12/19 13:23:43;;;;;;;20.17;15.67;;;3.30;99.90;;;;;;5114037;28;20172;-85
2023/12/19 13:26:09;;;;;;;17.23;14.87;;;3.30;99.90;;;;;;5114012;28;20172;-85
2023/12/19 13:28:35;;;;;;;17.63;15.57;;;3.20;99.90;;;;;;5114246;28;20180;-85
2023/12/19 13:31:03;;;;;;;18.10;15.07;;;3.20;99.90;;;;;;5113888;28;20555;-85
2023/12/19 13:33:29;;;;;;;19.10;15.53;;;3.20;99.90;;;;;;5114257;28;20275;-85
2023/12/19 13:35:55;;;;;;;18.17;15.47;;;3.20;99.90;;;;;;5113715;28;20226;-85
2023/12/19 13:38:22;;;;;;;20.40;14.97;;;3.20;99.90;;;;;;5114034;28;20215;-85
2023/12/19 13:40:48;;;;;;;18.80;15.13;;;3.20;99.90;;;;;;5113680;28;20215;-85
2023/12/19 13:43:14;;;;;;;19.70;16.43;;;3.20;99.90;;;;;;5113933;28;20271;-85
2023/12/19 13:45:39;;;;;;;18.50;16.10;;;3.20;99.90;;;;;;5114836;28;20194;-85
2023/12/19 13:48:06;;;;;;;19.57;15.33;;;3.30;99.90;;;;;;5113480;28;20192;-85
2023/12/19 13:50:33;;;;;;;17.67;15.43;;;3.20;99.90;;;;;;5113366;28;20230;-85
2023/12/19 13:53:00;;;;;;;18.13;15.53;;;3.20;99.90;;;;;;5113846;28;20267;-85
2023/12/19 13:55:26;;;;;;;17.70;15.17;;;3.20;99.90;;;;;;5113389;28;20180;-85
2023/12/19 13:57:52;;;;;;;19.07;14.93;;;3.20;99.90;;;;;;5113694;28;20668;-85
2023/12/19 14:00:18;;;;;;;19.27;15.60;;;3.20;99.90;;;;;;5113727;28;20200;-85
2023/12/19 14:02:44;;;;;;;18.77;16.03;;;3.10;99.90;;;;;;5113651;28;20229;-85
2023/12/19 14:05:11;;;;;;;19.70;15.10;;;3.10;99.90;;;;;;5113293;28;20203;-85
2023/12/19 14:07:38;;;;;;;17.10;14.73;;;3.20;99.90;;;;;;5113402;28;20199;-85
2023/12/19 14:10:06;;;;;;;17.07;14.17;;;3.20;99.90;;;;;;5113166;28;20221;-85
2023/12/19 14:12:32;;;;;;;18.30;14.60;;;3.20;99.90;;;;;;5113581;28;20180;-85
2023/12/19 14:14:58;;;;;;;16.13;14.13;;;3.20;99.90;;;;;;5113088;28;20182;-85
2023/12/19 14:17:24;;;;;;;18.43;14.70;;;3.30;99.90;;;;;;5112951;28;20203;-85
2023/12/19 14:19:50;;;;;;;15.27;13.67;;;3.30;99.90;;;;;;5113736;28;20204;-85
2023/12/19 14:22:16;;;;;;;17.40;14.03;;;3.30;99.90;;;;;;5113349;28;20209;-85
2023/12/19 14:24:42;;;;;;;15.97;13.50;;;3.30;99.90;;;;;;5113309;28;20539;-85
2023/12/19 14:27:08;;;;;;;15.60;13.93;;;3.30;99.90;;;;;;5113286;28;20195;-85
2023/12/19 14:29:34;;;;;;;15.17;13.30;;;3.30;99.90;;;;;;5113157;28;20176;-85
2023/12/19 14:32:00;;;;;;;16.73;13.47;;;3.30;99.90;;;;;;5113359;28;20168;-85
2023/12/19 14:34:26;;;;;;;14.73;13.20;;;3.30;99.90;;;;;;5113132;28;20176;-85
2023/12/19 14:36:51;;;;;;;17.67;14.40;;;3.30;99.90;;;;;;5112717;28;20199;-85
2023/12/19 14:39:17;;;;;;;17.03;14.03;;;3.30;99.90;;;;;;5113026;28;20172;-85
2023/12/19 14:41:45;;;;;;;16.60;14.50;;;3.30;99.90;;;;;;5112991;28;20574;-85
2023/12/19 14:44:12;;;;;;;15.27;13.53;;;3.30;99.90;;;;;;5112699;28;20168;-85
2023/12/19 14:46:38;;;;;;;17.07;14.03;;;3.30;99.90;;;;;;5113399;28;20216;-85
2023/12/19 14:49:04;;;;;;;16.87;13.77;;;3.30;99.90;;;;;;5113626;28;20226;-85
2023/12/19 14:51:30;;;;;;;15.47;13.87;;;3.30;99.90;;;;;;5113339;28;20192;-85
2023/12/19 14:53:59;;;;;;;15.80;13.57;;;3.30;99.90;;;;;;5112560;28;20185;-85
2023/12/19 14:56:25;;;;;;;16.37;14.67;;;3.30;99.90;;;;;;5113238;28;20211;-85
2023/12/19 14:58:51;;;;;;;20.17;16.73;;;3.30;99.90;;;;;;5112897;28;20184;-83
2023/12/19 15:01:17;;;;;;;62.40;43.37;;;3.20;99.90;;;;;;5113002;28;20207;-85
2023/12/19 15:03:43;;;;;;;46.73;31.97;;;3.20;99.90;;;;;;5112484;28;20222;-85
2023/12/19 15:06:09;;;;;;;18.07;15.50;;;3.30;99.90;;;;;;5113968;28;20173;-85
2023/12/19 15:08:35;;;;;;;16.33;14.40;;;3.30;99.90;;;;;;5113684;28;20177;-85
2023/12/19 15:11:03;;;;;;;15.90;14.17;;;3.30;99.90;;;;;;5112602;28;20176;-85
2023/12/19 15:13:30;;;;;;;16.77;14.97;;;3.30;99.90;;;;;;5117199;28;20180;-84
2023/12/19 15:15:56;;;;;;;16.03;14.33;;;3.30;99.90;;;;;;5116472;28;20187;-85
2023/12/19 15:18:25;;;;;;;19.37;15.30;;;3.30;99.90;;;;;;5116844;28;20179;-85
2023/12/19 15:20:51;;;;;;;15.43;13.80;;;3.30;99.90;;;;;;5116602;28;20291;-85
2023/12/19 15:23:18;;;;;;;15.40;13.63;;;3.30;99.90;;;;;;5116702;28;20180;-85
2023/12/19 15:25:44;;;;;;;16.90;13.57;;;3.30;99.90;;;;;;5117159;28;20187;-85
2023/12/19 15:28:10;;;;;;;14.97;13.37;;;3.30;99.90;;;;;;5116625;28;20223;-84
2023/12/19 15:30:36;;;;;;;15.07;13.47;;;3.40;99.90;;;;;;5116482;28;20180;-85
2023/12/19 15:33:03;;;;;;;15.97;13.63;;;3.40;99.90;;;;;;5117067;28;20190;-85
2023/12/19 15:35:30;;;;;;;15.03;13.43;;;3.40;99.90;;;;;;5116481;28;20185;-85
2023/12/19 15:37:56;;;;;;;15.60;13.90;;;3.40;99.90;;;;;;5116358;28;20196;-85
2023/12/19 15:40:22;;;;;;;16.10;14.23;;;3.40;99.90;;;;;;5116394;28;20207;-85
2023/12/19 15:42:47;;;;;;;15.90;14.20;;;3.30;99.90;;;;;;5116864;28;20180;-85
2023/12/19 15:45:13;;;;;;;19.63;15.73;;;3.30;99.90;;;;;;5115976;28;20183;-85
2023/12/19 15:47:39;;;;;;;16.23;14.30;;;3.40;99.90;;;;;;5116170;28;20232;-85
2023/12/19 15:50:05;;;;;;;15.80;14.17;;;3.40;99.90;;;;;;5116031;28;20200;-86
2023/12/19 15:52:32;;;;;;;16.10;14.40;;;3.40;99.90;;;;;;5116310;28;20188;-87
2023/12/19 15:54:58;;;;;;;18.27;16.23;;;3.40;99.90;;;;;;5116312;28;20265;-86
2023/12/19 15:57:24;;;;;;;19.83;17.47;;;3.40;99.90;;;;;;5115736;28;20303;-85
2023/12/19 15:59:50;;;;;;;18.53;15.50;;;3.40;99.90;;;;;;5116027;28;20187;-85
2023/12/19 16:02:17;;;;;;;18.27;16.37;;;3.30;99.90;;;;;;5116606;28;20180;-85
2023/12/19 16:04:43;;;;;;;17.37;15.03;;;3.40;99.90;;;;;;5115744;28;20210;-85
2023/12/19 16:07:09;;;;;;;16.00;14.30;;;3.30;99.90;;;;;;5115465;28;20260;-85
2023/12/19 16:09:36;;;;;;;16.63;14.77;;;3.40;99.90;;;;;;5115735;28;20640;-84
2023/12/19 16:12:02;;;;;;;15.43;13.80;;;3.40;99.90;;;;;;5115290;28;20184;-85
2023/12/19 16:14:27;;;;;;;16.07;14.37;;;3.40;99.90;;;;;;5115818;28;20187;-85
2023/12/19 16:16:53;;;;;;;16.07;14.37;;;3.50;99.90;;;;;;5115449;28;20258;-85
2023/12/19 16:19:22;;;;;;;26.53;22.10;;;3.50;99.90;;;;;;5115368;28;20173;-85
2023/12/19 16:21:48;;;;;;;17.20;15.40;;;3.50;99.90;;;;;;5115434;28;20196;-86
2023/12/19 16:24:14;;;;;;;14.03;12.63;;;3.50;99.90;;;;;;5115326;28;20183;-85
2023/12/19 16:26:39;;;;;;;13.20;11.80;;;3.60;99.90;;;;;;5115181;28;20196;-86
2023/12/19 16:29:06;;;;;;;13.60;12.20;;;3.60;99.90;;;;;;5116118;28;20690;-86
2023/12/19 16:31:36;;;;;;;13.87;12.37;;;3.60;99.90;;;;;;5115348;28;20176;-85
2023/12/19 16:34:02;;;;;;;14.63;12.90;;;3.60;99.90;;;;;;5115513;28;20271;-85
2023/12/19 16:36:28;;;;;;;14.03;12.57;;;3.60;99.90;;;;;;5115250;28;20250;-85
2023/12/19 16:38:54;;;;;;;13.97;12.57;;;3.60;99.90;;;;;;5115304;28;20176;-85
2023/12/19 16:41:27;;;;;;;18.53;13.33;;;3.60;99.90;;;;;;5115230;28;20224;-85
2023/12/19 16:43:53;;;;;;;15.27;13.03;;;3.60;99.90;;;;;;5115016;28;20545;-85
2023/12/19 16:46:19;;;;;;;13.40;11.83;;;3.60;99.90;;;;;;5114876;28;20283;-85
2023/12/19 16:48:44;;;;;;;12.43;11.10;;;3.60;99.90;;;;;;5115590;28;20181;-85
2023/12/19 16:51:10;;;;;;;13.43;12.03;;;3.60;99.90;;;;;;5114904;28;20206;-85
2023/12/19 16:53:35;;;;;;;14.23;12.80;;;3.60;99.90;;;;;;5114863;28;20225;-85
2023/12/19 16:56:01;;;;;;;14.13;12.60;;;3.60;99.90;;;;;;5114947;28;20180;-85
2023/12/19 16:58:27;;;;;;;13.13;11.73;;;3.60;99.90;;;;;;5115303;28;20181;-85
2023/12/19 17:00:53;;;;;;;13.23;11.83;;;3.60;99.90;;;;;;5114980;28;20196;-85
2023/12/19 17:03:18;;;;;;;13.10;11.57;;;3.60;99.90;;;;;;5114704;28;20260;-85
2023/12/19 17:05:44;;;;;;;12.50;11.30;;;3.60;99.90;;;;;;5115424;28;20271;-85
2023/12/19 17:08:10;;;;;;;13.63;12.10;;;3.60;99.90;;;;;;5114841;28;20195;-86
2023/12/19 17:10:36;;;;;;;13.07;11.63;;;3.60;99.90;;;;;;5114812;28;20180;-86
2023/12/19 17:13:02;;;;;;;12.40;11.10;;;3.60;99.90;;;;;;5114338;28;20176;-86
2023/12/19 17:15:29;;;;;;;12.87;11.57;;;3.60;99.90;;;;;;5114678;28;20558;-86
2023/12/19 17:17:55;;;;;;;13.10;11.80;;;3.60;99.90;;;;;;5114292;28;20196;-85
2023/12/19 17:20:21;;;;;;;12.27;10.93;;;3.70;99.90;;;;;;5114266;28;20256;-85
2023/12/19 17:22:47;;;;;;;14.57;12.80;;;3.70;99.90;;;;;;5114466;28;20226;-86
2023/12/19 17:25:12;;;;;;;13.70;12.07;;;3.70;99.90;;;;;;5114092;28;20176;-85
2023/12/19 17:27:38;;;;;;;12.60;11.40;;;3.60;99.90;;;;;;5114425;28;20237;-85
2023/12/19 17:30:04;;;;;;;14.03;12.30;;;3.70;99.90;;;;;;5115287;28;20267;-85
2023/12/19 17:32:35;;;;;;;12.47;11.17;;;3.70;99.90;;;;;;5114084;28;20271;-85
2023/12/19 17:35:01;;;;;;;14.03;12.13;;;3.70;99.90;;;;;;5113490;28;20249;-85
2023/12/19 17:37:28;;;;;;;13.53;12.13;;;3.70;99.90;;;;;;5114012;28;20313;-85
2023/12/19 17:39:55;;;;;;;13.40;12.00;;;3.70;99.90;;;;;;5114010;28;20214;-85
2023/12/19 17:42:21;;;;;;;14.57;12.67;;;3.80;99.90;;;;;;5114745;28;20188;-85
2023/12/19 17:44:51;;;;;;;15.00;13.03;;;3.80;99.90;;;;;;5113893;28;20229;-85
2023/12/19 17:47:19;;;;;;;14.20;12.60;;;3.80;99.90;;;;;;5113887;28;20216;-85
2023/12/19 17:49:44;;;;;;;14.37;12.67;;;3.70;99.90;;;;;;5114027;28;20196;-85
2023/12/19 17:52:20;;;;;;;14.23;12.73;;;3.80;99.90;;;;;;5113768;28;20175;-84
2023/12/19 17:54:59;;;;;;;13.50;12.10;;;3.80;99.90;;;;;;5115171;28;20200;-85
2023/12/19 17:57:25;;;;;;;14.00;12.40;;;3.80;99.90;;;;;;5114199;28;20234;-85
2023/12/19 17:59:50;;;;;;;13.63;12.30;;;3.80;99.90;;;;;;5113332;28;20230;-85
2023/12/19 18:02:16;;;;;;;13.40;12.00;;;3.80;99.90;;;;;;5113384;28;20683;-85
2023/12/19 18:04:43;;;;;;;14.47;12.87;;;3.80;99.90;;;;;;5114214;28;20256;-85
2023/12/19 18:07:09;;;;;;;14.03;12.53;;;3.90;99.90;;;;;;5113794;28;20727;-84
2023/12/19 18:09:35;;;;;;;13.60;12.17;;;3.80;99.90;;;;;;5113293;28;20172;-85
2023/12/19 18:12:01;;;;;;;14.13;12.73;;;3.80;99.90;;;;;;5114120;28;20167;-85
2023/12/19 18:14:26;;;;;;;13.67;12.27;;;3.80;99.90;;;;;;5113297;28;20184;-85
2023/12/19 18:16:53;;;;;;;14.70;13.20;;;3.80;99.90;;;;;;5114301;28;20207;-85
2023/12/19 18:19:19;;;;;;;14.40;12.90;;;3.80;99.90;;;;;;5113225;28;20176;-85
2023/12/19 18:21:45;;;;;;;14.43;12.83;;;3.90;99.90;;;;;;5113321;28;20200;-85
2023/12/19 18:24:11;;;;;;;15.67;13.23;;;3.90;99.90;;;;;;5113022;28;20600;-85
2023/12/19 18:26:39;;;;;;;16.20;14.50;;;3.90;99.90;;;;;;5112941;28;20196;-85
2023/12/19 18:29:09;;;;;;;19.07;16.03;;;3.90;99.90;;;;;;5113307;28;20191;-85
2023/12/19 18:31:35;;;;;;;17.13;15.23;;;3.90;99.90;;;;;;5112946;28;20165;-85
2023/12/19 18:34:00;;;;;;;17.87;14.03;;;3.90;99.90;;;;;;5113039;28;20240;-85
2023/12/19 18:36:29;;;;;;;15.87;13.67;;;3.90;99.90;;;;;;5113074;28;20208;-85
2023/12/19 18:38:54;;;;;;;14.23;12.70;;;3.80;99.90;;;;;;5112987;28;20269;-85
2023/12/19 18:41:20;;;;;;;13.30;11.90;;;3.80;99.90;;;;;;5112631;28;20227;-85
2023/12/19 18:43:46;;;;;;;12.17;10.97;;;3.80;99.90;;;;;;5112566;28;20172;-85
2023/12/19 18:46:19;;;;;;;13.33;11.93;;;3.80;99.90;;;;;;5112539;28;20168;-85
2023/12/19 18:48:45;;;;;;;14.33;12.83;;;3.80;99.90;;;;;;5113557;28;20254;-85
2023/12/19 18:51:15;;;;;;;14.03;12.57;;;3.80;99.90;;;;;;5112709;28;20200;-85
2023/12/19 18:53:46;;;;;;;13.20;11.90;;;3.80;99.90;;;;;;5113421;28;20225;-85
2023/12/19 18:56:11;;;;;;;14.20;12.33;;;3.80;99.90;;;;;;5113572;28;20194;-85
2023/12/19 18:58:37;;;;;;;14.83;11.40;;;3.80;99.90;;;;;;5113234;28;20168;-85
2023/12/19 19:01:05;;;;;;;17.43;14.67;;;3.80;99.90;;;;;;5113262;28;20264;-85
2023/12/19 19:03:32;;;;;;;17.97;16.10;;;3.80;99.90;;;;;;5114240;28;20516;-85
2023/12/19 19:05:57;;;;;;;27.20;21.90;;;3.80;99.90;;;;;;5113352;28;20179;-86
2023/12/19 19:08:23;;;;;;;38.43;26.70;;;3.80;99.90;;;;;;5112835;28;20297;-85
2023/12/19 19:10:53;;;;;;;33.87;24.97;;;3.80;99.90;;;;;;5112977;28;20176;-86
2023/12/19 19:13:19;;;;;;;57.63;37.80;;;3.80;99.90;;;;;;5113149;28;20195;-87
2023/12/19 19:15:47;;;;;;;37.27;26.40;;;3.80;99.90;;;;;;5113258;28;20168;-86
2023/12/19 19:18:16;;;;;;;46.10;30.30;;;3.80;99.90;;;;;;5113040;28;20647;-85
2023/12/19 19:20:44;;;;;;;80.40;53.00;;;3.80;99.90;;;;;;5113150;28;20195;-85
2023/12/19 19:23:15;;;;;;;47.63;37.63;;;3.80;99.90;;;;;;5112260;28;20168;-85
2023/12/19 19:25:41;;;;;;;19.97;17.87;;;3.80;99.90;;;;;;5113017;28;20161;-84
2023/12/19 19:28:12;;;;;;;17.17;15.47;;;3.80;99.90;;;;;;5112738;28;20196;-86
2023/12/19 19:30:43;;;;;;;17.17;15.43;;;3.80;99.90;;;;;;5112150;28;20172;-86